createdAt,value
2018-11-27T00:00:13.457Z,50.29
2018-11-27T00:01:13.633Z,49.56
2018-11-27T00:02:13.799Z,48.58
2018-11-27T00:03:13.973Z,49.07
2018-11-27T00:04:14.146Z,49.07
2018-11-27T00:05:14.321Z,50.29
2018-11-27T00:06:14.498Z,48.10
2018-11-27T00:07:14.664Z,48.10
2018-11-27T00:08:14.830Z,50.29
2018-11-27T00:09:15.000Z,48.34
2018-11-27T00:10:15.171Z,53.96
2018-11-27T00:11:15.342Z,56.15
2018-11-27T00:12:15.519Z,48.58
2018-11-27T00:13:15.685Z,56.40
2018-11-27T00:14:15.859Z,53.71
2018-11-27T00:15:16.030Z,48.83
2018-11-27T00:16:16.210Z,49.80
2018-11-27T00:17:16.373Z,50.05
2018-11-27T00:18:16.551Z,47.61
2018-11-27T00:19:16.728Z,47.61
2018-11-27T00:20:16.888Z,47.61
2018-11-27T00:21:17.055Z,47.12
2018-11-27T00:22:17.231Z,47.36
2018-11-27T00:23:17.404Z,47.85
2018-11-27T00:24:17.580Z,49.32
2018-11-27T00:25:17.752Z,50.78
2018-11-27T00:26:17.924Z,51.51
2018-11-27T00:27:18.095Z,47.36
2018-11-27T00:28:18.264Z,48.34
2018-11-27T00:29:18.436Z,49.07
2018-11-27T00:30:18.601Z,47.85
2018-11-27T00:31:18.771Z,48.34
2018-11-27T00:32:18.950Z,48.58
2018-11-27T00:33:19.117Z,48.58
2018-11-27T00:34:19.286Z,58.84
2018-11-27T00:35:19.462Z,50.29
2018-11-27T00:36:19.637Z,48.34
2018-11-27T00:37:19.814Z,51.76
2018-11-27T00:38:19.986Z,55.18
2018-11-27T00:39:20.142Z,59.57
2018-11-27T00:40:20.320Z,58.59
2018-11-27T00:41:20.490Z,58.35
2018-11-27T00:42:20.681Z,48.10
2018-11-27T00:43:20.836Z,47.85
2018-11-27T00:44:20.999Z,47.85
2018-11-27T00:45:21.175Z,51.03
2018-11-27T00:46:21.348Z,48.34
2018-11-27T00:47:21.537Z,47.85
2018-11-27T00:48:21.683Z,47.85
2018-11-27T00:49:21.850Z,56.15
2018-11-27T00:50:22.025Z,58.35
2018-11-27T00:51:22.197Z,48.58
2018-11-27T00:52:22.370Z,48.10
2018-11-27T00:53:22.534Z,52.49
2018-11-27T00:54:22.703Z,53.47
2018-11-27T00:55:22.889Z,64.45
2018-11-27T00:56:23.039Z,47.85
2018-11-27T00:57:23.231Z,51.03
2018-11-27T00:58:23.395Z,51.03
2018-11-27T00:59:23.570Z,47.85
2018-11-27T01:00:23.738Z,55.91
2018-11-27T01:01:23.915Z,48.10
2018-11-27T01:02:24.080Z,47.85
2018-11-27T01:03:24.258Z,47.36
2018-11-27T01:04:24.429Z,48.10
2018-11-27T01:07:24.930Z,49.07
2018-11-27T01:08:25.101Z,48.10
2018-11-27T01:09:25.269Z,52.73
2018-11-27T01:10:25.442Z,50.29
2018-11-27T01:11:25.620Z,47.36
2018-11-27T01:12:25.791Z,48.34
2018-11-27T01:13:25.964Z,47.85
2018-11-27T01:14:26.126Z,60.06
2018-11-27T01:15:26.294Z,64.21
2018-11-27T01:16:26.463Z,49.80
2018-11-27T01:17:26.639Z,48.83
2018-11-27T01:18:26.808Z,49.07
2018-11-27T01:19:26.979Z,47.85
2018-11-27T01:20:27.150Z,48.10
2018-11-27T01:21:27.330Z,48.58
2018-11-27T01:22:27.495Z,47.85
2018-11-27T01:23:27.662Z,48.83
2018-11-27T01:24:27.832Z,48.10
2018-11-27T01:25:28.008Z,47.61
2018-11-27T01:26:28.178Z,48.34
2018-11-27T01:27:28.350Z,48.58
2018-11-27T01:28:28.517Z,55.42
2018-11-27T01:29:28.690Z,54.93
2018-11-27T01:30:28.861Z,47.85
2018-11-27T01:31:29.032Z,48.10
2018-11-27T01:32:29.206Z,61.28
2018-11-27T01:33:29.373Z,49.80
2018-11-27T01:34:29.544Z,47.61
2018-11-27T01:35:29.716Z,47.61
2018-11-27T01:36:29.892Z,47.12
2018-11-27T01:37:30.067Z,49.07
2018-11-27T01:38:30.227Z,47.12
2018-11-27T01:39:30.400Z,47.85
2018-11-27T01:40:30.570Z,48.83
2018-11-27T01:41:30.741Z,47.36
2018-11-27T01:42:30.914Z,47.61
2018-11-27T01:43:31.083Z,54.20
2018-11-27T01:44:31.257Z,47.61
2018-11-27T01:45:31.430Z,47.61
2018-11-27T01:46:31.601Z,47.61
2018-11-27T01:47:31.770Z,48.58
2018-11-27T01:48:31.945Z,48.58
2018-11-27T01:49:32.117Z,63.96
2018-11-27T01:50:32.290Z,47.36
2018-11-27T01:51:32.463Z,47.36
2018-11-27T01:52:32.632Z,47.12
2018-11-27T01:53:32.804Z,47.85
2018-11-27T01:54:32.975Z,48.58
2018-11-27T01:55:33.147Z,47.12
2018-11-27T01:56:33.318Z,50.29
2018-11-27T01:57:33.489Z,47.36
2018-11-27T01:58:33.662Z,47.61
2018-11-27T01:59:33.834Z,58.59
2018-11-27T02:00:34.016Z,47.12
2018-11-27T02:01:34.175Z,48.34
2018-11-27T02:02:34.357Z,47.85
2018-11-27T02:03:34.522Z,47.36
2018-11-27T02:04:34.693Z,47.36
2018-11-27T02:05:34.881Z,47.36
2018-11-27T02:06:35.034Z,51.27
2018-11-27T02:07:35.205Z,50.29
2018-11-27T02:08:35.378Z,48.10
2018-11-27T02:09:35.551Z,47.36
2018-11-27T02:10:35.721Z,57.86
2018-11-27T02:11:35.896Z,49.32
2018-11-27T02:12:36.067Z,47.36
2018-11-27T02:13:36.246Z,47.85
2018-11-27T02:14:36.413Z,47.36
2018-11-27T02:15:36.581Z,47.36
2018-11-27T02:16:36.769Z,47.61
2018-11-27T02:17:36.941Z,47.85
2018-11-27T02:18:37.125Z,48.34
2018-11-27T02:19:37.287Z,47.36
2018-11-27T02:20:37.459Z,47.12
2018-11-27T02:21:37.633Z,47.36
2018-11-27T02:22:37.802Z,47.36
2018-11-27T02:23:37.971Z,48.10
2018-11-27T02:24:38.144Z,48.58
2018-11-27T02:25:38.319Z,49.80
2018-11-27T02:26:38.497Z,47.12
2018-11-27T02:27:38.657Z,47.36
2018-11-27T02:28:38.829Z,48.10
2018-11-27T02:29:39.011Z,48.34
2018-11-27T02:30:39.176Z,47.85
2018-11-27T02:31:39.351Z,50.54
2018-11-27T02:32:39.517Z,47.12
2018-11-27T02:33:39.685Z,47.36
2018-11-27T02:34:39.855Z,47.12
2018-11-27T02:35:40.027Z,47.12
2018-11-27T02:36:40.210Z,49.07
2018-11-27T02:37:40.369Z,47.36
2018-11-27T02:38:40.534Z,53.71
2018-11-27T02:39:40.710Z,52.73
2018-11-27T02:40:40.882Z,48.58
2018-11-27T02:41:41.067Z,50.29
2018-11-27T02:42:41.227Z,52.00
2018-11-27T02:43:41.419Z,52.73
2018-11-27T02:44:41.566Z,56.15
2018-11-27T02:45:41.732Z,48.10
2018-11-27T02:46:41.902Z,47.61
2018-11-27T02:47:42.074Z,46.88
2018-11-27T02:48:42.249Z,47.36
2018-11-27T02:49:42.420Z,50.54
2018-11-27T02:50:42.592Z,48.10
2018-11-27T02:51:42.772Z,47.85
2018-11-27T02:52:42.932Z,49.56
2018-11-27T02:53:43.119Z,47.61
2018-11-27T02:54:43.274Z,46.88
2018-11-27T02:55:43.443Z,48.83
2018-11-27T02:56:43.614Z,49.80
2018-11-27T02:57:43.787Z,49.56
2018-11-27T02:58:43.982Z,57.37
2018-11-27T02:59:44.135Z,47.36
2018-11-27T03:00:44.296Z,47.61
2018-11-27T03:01:44.458Z,46.63
2018-11-27T03:02:44.620Z,48.10
2018-11-27T03:03:44.794Z,48.58
2018-11-27T03:04:44.958Z,47.61
2018-11-27T03:05:45.134Z,57.62
2018-11-27T03:06:45.320Z,56.88
2018-11-27T03:07:45.480Z,55.42
2018-11-27T03:08:45.650Z,60.79
2018-11-27T03:09:45.823Z,50.54
2018-11-27T03:10:45.995Z,47.12
2018-11-27T03:11:46.165Z,47.12
2018-11-27T03:12:46.339Z,50.54
2018-11-27T03:13:46.506Z,53.47
2018-11-27T03:14:46.693Z,48.10
2018-11-27T03:15:46.850Z,49.80
2018-11-27T03:16:47.027Z,47.12
2018-11-27T03:17:47.195Z,47.12
2018-11-27T03:18:47.362Z,47.12
2018-11-27T03:19:47.557Z,46.88
2018-11-27T03:20:47.729Z,47.36
2018-11-27T03:21:47.895Z,47.36
2018-11-27T03:22:48.067Z,47.12
2018-11-27T03:23:48.244Z,46.88
2018-11-27T03:24:48.412Z,46.63
2018-11-27T03:25:48.588Z,46.63
2018-11-27T03:26:48.751Z,47.85
2018-11-27T03:27:48.944Z,47.36
2018-11-27T03:28:49.102Z,56.88
2018-11-27T03:29:49.277Z,50.54
2018-11-27T03:30:49.476Z,46.88
2018-11-27T03:31:49.617Z,47.61
2018-11-27T03:32:49.838Z,47.85
2018-11-27T03:33:49.961Z,47.61
2018-11-27T03:34:50.121Z,47.85
2018-11-27T03:35:50.291Z,54.20
2018-11-27T03:36:50.464Z,48.34
2018-11-27T03:37:50.637Z,46.88
2018-11-27T03:38:50.815Z,47.36
2018-11-27T03:39:50.975Z,52.73
2018-11-27T03:40:51.151Z,47.12
2018-11-27T03:41:51.323Z,50.54
2018-11-27T03:42:51.495Z,46.88
2018-11-27T03:43:51.663Z,47.61
2018-11-27T03:44:51.848Z,48.10
2018-11-27T03:45:52.009Z,48.34
2018-11-27T03:46:52.174Z,48.58
2018-11-27T03:47:52.351Z,46.88
2018-11-27T03:48:52.521Z,46.88
2018-11-27T03:49:52.704Z,47.12
2018-11-27T03:50:52.862Z,47.85
2018-11-27T03:51:53.026Z,49.80
2018-11-27T03:52:53.204Z,56.64
2018-11-27T03:53:53.374Z,67.14
2018-11-27T03:54:53.547Z,58.35
2018-11-27T03:55:53.714Z,48.10
2018-11-27T03:56:53.889Z,49.32
2018-11-27T03:57:54.070Z,47.61
2018-11-27T03:58:54.227Z,47.61
2018-11-27T03:59:54.403Z,47.12
2018-11-27T04:00:54.570Z,48.34
2018-11-27T04:01:54.745Z,48.34
2018-11-27T04:02:54.919Z,47.12
2018-11-27T04:03:55.094Z,51.76
2018-11-27T04:04:55.258Z,60.30
2018-11-27T04:05:55.430Z,48.58
2018-11-27T04:06:55.601Z,61.28
2018-11-27T04:07:55.770Z,47.12
2018-11-27T04:08:55.943Z,48.10
2018-11-27T04:09:56.113Z,49.80
2018-11-27T04:10:56.288Z,48.83
2018-11-27T04:11:56.454Z,47.36
2018-11-27T04:12:56.627Z,53.47
2018-11-27T04:13:56.801Z,62.74
2018-11-27T04:14:56.970Z,65.67
2018-11-27T04:15:57.142Z,49.56
2018-11-27T04:16:57.312Z,50.78
2018-11-27T04:17:57.480Z,55.18
2018-11-27T04:18:57.651Z,47.61
2018-11-27T04:19:57.825Z,48.34
2018-11-27T04:20:58.002Z,48.10
2018-11-27T04:21:58.171Z,48.34
2018-11-27T04:22:58.342Z,49.56
2018-11-27T04:23:58.518Z,49.07
2018-11-27T04:24:58.686Z,54.93
2018-11-27T04:25:58.861Z,53.47
2018-11-27T04:26:59.036Z,52.73
2018-11-27T04:27:59.201Z,55.18
2018-11-27T04:28:59.374Z,47.85
2018-11-27T04:29:59.546Z,47.61
2018-11-27T04:30:59.715Z,47.85
2018-11-27T04:31:59.887Z,63.23
2018-11-27T04:33:00.067Z,49.56
2018-11-27T04:34:00.227Z,52.49
2018-11-27T04:35:00.398Z,75.44
2018-11-27T04:36:00.575Z,57.37
2018-11-27T04:37:00.740Z,52.73
2018-11-27T04:38:00.913Z,52.00
2018-11-27T04:39:01.080Z,49.07
2018-11-27T04:40:01.255Z,53.71
2018-11-27T04:41:01.428Z,60.55
2018-11-27T04:42:01.608Z,59.57
2018-11-27T04:43:01.764Z,74.22
2018-11-27T04:44:01.935Z,66.16
2018-11-27T04:45:02.109Z,48.34
2018-11-27T04:46:02.269Z,64.45
2018-11-27T04:47:02.442Z,62.74
2018-11-27T04:48:02.618Z,70.07
2018-11-27T04:49:02.787Z,59.57
2018-11-27T04:50:02.974Z,51.76
2018-11-27T04:51:03.134Z,54.20
2018-11-27T04:52:03.306Z,51.76
2018-11-27T04:53:03.479Z,54.44
2018-11-27T04:54:03.644Z,59.08
2018-11-27T04:55:03.816Z,63.96
2018-11-27T04:56:03.993Z,52.73
2018-11-27T04:57:04.162Z,51.03
2018-11-27T04:59:04.494Z,49.80
2018-11-27T05:00:04.675Z,73.24
2018-11-27T05:01:04.841Z,73.97
2018-11-27T05:02:05.014Z,55.91
2018-11-27T05:03:05.182Z,61.77
2018-11-27T05:04:05.353Z,67.38
2018-11-27T05:05:05.522Z,61.28
2018-11-27T05:06:05.702Z,73.97
2018-11-27T05:07:05.867Z,76.90
2018-11-27T05:08:06.038Z,67.38
2018-11-27T05:09:06.220Z,74.95
2018-11-27T05:10:06.387Z,71.29
2018-11-27T05:11:06.555Z,69.09
2018-11-27T05:12:06.732Z,77.39
2018-11-27T05:13:06.902Z,68.36
2018-11-27T05:14:07.065Z,73.97
2018-11-27T05:15:07.234Z,75.93
2018-11-27T05:16:07.410Z,69.34
2018-11-27T05:17:07.579Z,74.71
2018-11-27T05:18:07.762Z,64.94
2018-11-27T05:19:07.921Z,76.66
2018-11-27T05:20:08.093Z,79.83
2018-11-27T05:21:08.265Z,84.23
2018-11-27T05:22:08.435Z,67.38
2018-11-27T05:23:08.613Z,67.38
2018-11-27T05:24:08.786Z,69.09
2018-11-27T05:25:08.956Z,80.81
2018-11-27T05:26:09.125Z,66.16
2018-11-27T05:27:09.293Z,76.90
2018-11-27T05:28:09.465Z,76.66
2018-11-27T05:29:09.643Z,72.02
2018-11-27T05:30:09.816Z,72.27
2018-11-27T05:32:10.150Z,69.34
2018-11-27T05:33:10.321Z,64.94
2018-11-27T05:34:10.496Z,67.14
2018-11-27T05:35:10.665Z,71.78
2018-11-27T05:36:10.837Z,81.30
2018-11-27T05:37:11.008Z,69.58
2018-11-27T05:38:11.178Z,76.66
2018-11-27T05:39:11.350Z,69.82
2018-11-27T05:40:11.521Z,79.10
2018-11-27T05:41:11.690Z,85.69
2018-11-27T05:42:11.862Z,80.32
2018-11-27T05:43:12.028Z,70.07
2018-11-27T05:44:12.202Z,65.19
2018-11-27T05:45:12.374Z,71.78
2018-11-27T05:46:12.546Z,72.27
2018-11-27T05:47:12.716Z,63.72
2018-11-27T05:48:12.885Z,65.43
2018-11-27T05:49:13.058Z,78.61
2018-11-27T05:50:13.241Z,74.71
2018-11-27T05:51:13.401Z,67.38
2018-11-27T05:52:13.574Z,70.56
2018-11-27T05:53:13.746Z,79.10
2018-11-27T05:54:13.919Z,78.37
2018-11-27T05:55:14.091Z,71.53
2018-11-27T05:56:14.266Z,74.22
2018-11-27T05:57:14.433Z,90.58
2018-11-27T05:58:14.603Z,86.91
2018-11-27T05:59:14.775Z,75.20
2018-11-27T06:00:14.949Z,93.99
2018-11-27T06:01:15.122Z,87.16
2018-11-27T06:02:15.297Z,81.05
2018-11-27T06:03:15.462Z,80.81
2018-11-27T06:04:15.640Z,79.35
2018-11-27T06:05:15.806Z,84.23
2018-11-27T06:06:15.977Z,77.64
2018-11-27T06:07:16.145Z,79.35
2018-11-27T06:08:16.314Z,73.97
2018-11-27T06:09:16.484Z,70.80
2018-11-27T06:10:16.658Z,73.73
2018-11-27T06:11:16.836Z,73.00
2018-11-27T06:12:16.999Z,73.97
2018-11-27T06:13:17.167Z,73.24
2018-11-27T06:14:17.341Z,80.32
2018-11-27T06:15:17.509Z,76.66
2018-11-27T06:16:17.682Z,74.95
2018-11-27T06:17:17.873Z,74.95
2018-11-27T06:18:18.019Z,77.39
2018-11-27T06:19:18.190Z,72.02
2018-11-27T06:20:18.364Z,76.90
2018-11-27T06:21:18.534Z,74.22
2018-11-27T06:22:18.702Z,74.95
2018-11-27T06:23:18.874Z,71.29
2018-11-27T06:24:19.044Z,81.30
2018-11-27T06:25:19.219Z,77.64
2018-11-27T06:26:19.389Z,73.24
2018-11-27T06:27:19.562Z,71.53
2018-11-27T06:28:19.727Z,78.37
2018-11-27T06:29:19.896Z,78.37
2018-11-27T06:30:20.067Z,71.04
2018-11-27T06:31:20.244Z,74.46
2018-11-27T06:32:21.483Z,71.29
2018-11-27T06:33:20.578Z,77.88
2018-11-27T06:34:20.747Z,82.76
2018-11-27T06:35:20.947Z,85.21
2018-11-27T06:36:21.086Z,73.97
2018-11-27T06:37:21.262Z,72.75
2018-11-27T06:38:21.435Z,71.04
2018-11-27T06:39:21.603Z,93.02
2018-11-27T06:40:21.780Z,77.39
2018-11-27T06:41:21.948Z,76.66
2018-11-27T06:42:22.130Z,71.53
2018-11-27T06:43:22.292Z,80.08
2018-11-27T06:44:22.453Z,79.83
2018-11-27T06:45:22.614Z,70.56
2018-11-27T06:46:22.819Z,69.58
2018-11-27T06:47:22.966Z,69.58
2018-11-27T06:48:23.143Z,66.41
2018-11-27T06:49:23.314Z,68.60
2018-11-27T06:50:23.485Z,68.12
2018-11-27T06:51:23.665Z,63.48
2018-11-27T06:52:23.819Z,70.07
2018-11-27T06:53:23.981Z,75.44
2018-11-27T06:54:24.150Z,68.60
2018-11-27T06:55:24.375Z,75.44
2018-11-27T06:56:24.485Z,76.42
2018-11-27T06:57:24.657Z,71.78
2018-11-27T06:58:24.830Z,70.80
2018-11-27T06:59:25.001Z,72.75
2018-11-27T07:00:25.158Z,74.22
2018-11-27T07:01:25.327Z,71.29
2018-11-27T07:02:25.501Z,70.07
2018-11-27T07:03:25.670Z,69.09
2018-11-27T07:04:25.837Z,75.93
2018-11-27T07:05:26.007Z,72.02
2018-11-27T07:06:26.182Z,64.94
2018-11-27T07:07:26.340Z,69.34
2018-11-27T07:08:27.420Z,68.60
2018-11-27T07:09:26.690Z,74.95
2018-11-27T07:10:26.857Z,64.45
2018-11-27T07:11:27.026Z,68.60
2018-11-27T07:12:27.192Z,69.82
2018-11-27T07:13:27.368Z,72.51
2018-11-27T07:14:27.539Z,72.27
2018-11-27T07:15:27.738Z,69.34
2018-11-27T07:16:27.880Z,62.99
2018-11-27T07:17:28.053Z,66.16
2018-11-27T07:18:28.229Z,60.55
2018-11-27T07:19:28.399Z,74.95
2018-11-27T07:20:28.575Z,72.27
2018-11-27T07:21:28.737Z,85.69
2018-11-27T07:22:28.906Z,67.63
2018-11-27T07:23:29.078Z,73.49
2018-11-27T07:24:29.246Z,63.72
2018-11-27T07:25:29.419Z,70.31
2018-11-27T07:26:29.589Z,67.87
2018-11-27T07:27:29.768Z,68.12
2018-11-27T07:28:29.996Z,71.29
2018-11-27T07:29:30.100Z,70.31
2018-11-27T07:30:30.275Z,67.63
2018-11-27T07:31:30.441Z,75.44
2018-11-27T07:32:30.610Z,71.29
2018-11-27T07:33:30.772Z,68.60
2018-11-27T07:34:30.954Z,71.04
2018-11-27T07:35:31.127Z,67.38
2018-11-27T07:36:31.288Z,66.41
2018-11-27T07:37:31.457Z,76.66
2018-11-27T07:38:31.625Z,85.21
2018-11-27T07:39:31.796Z,70.56
2018-11-27T07:40:31.968Z,61.28
2018-11-27T07:41:32.127Z,79.83
2018-11-27T07:42:32.303Z,69.09
2018-11-27T07:43:32.481Z,71.53
2018-11-27T07:44:32.646Z,64.70
2018-11-27T07:45:32.816Z,68.12
2018-11-27T07:46:32.985Z,77.64
2018-11-27T07:47:33.160Z,66.16
2018-11-27T07:48:33.326Z,78.86
2018-11-27T07:49:33.497Z,74.71
2018-11-27T07:50:33.660Z,72.75
2018-11-27T07:51:33.853Z,61.28
2018-11-27T07:52:33.995Z,68.36
2018-11-27T07:53:34.168Z,74.95
2018-11-27T07:54:34.345Z,75.20
2018-11-27T07:55:34.510Z,81.05
2018-11-27T07:56:34.681Z,71.29
2018-11-27T07:57:34.851Z,74.46
2018-11-27T07:58:35.024Z,69.82
2018-11-27T07:59:35.205Z,76.66
2018-11-27T08:00:35.416Z,68.60
2018-11-27T08:01:35.534Z,63.72
2018-11-27T08:02:35.702Z,61.52
2018-11-27T08:03:35.866Z,65.43
2018-11-27T08:04:36.041Z,79.83
2018-11-27T08:05:36.209Z,68.85
2018-11-27T08:06:36.401Z,72.27
2018-11-27T08:07:36.552Z,69.09
2018-11-27T08:08:36.726Z,65.19
2018-11-27T08:09:36.923Z,71.29
2018-11-27T08:10:37.083Z,69.09
2018-11-27T08:11:37.266Z,75.68
2018-11-27T08:12:37.429Z,72.27
2018-11-27T08:13:37.605Z,66.16
2018-11-27T08:14:37.767Z,75.44
2018-11-27T08:15:37.943Z,67.14
2018-11-27T08:16:38.113Z,74.22
2018-11-27T08:17:38.282Z,65.92
2018-11-27T08:18:38.472Z,66.16
2018-11-27T08:19:38.626Z,63.23
2018-11-27T08:20:38.799Z,67.14
2018-11-27T08:21:38.976Z,72.27
2018-11-27T08:22:39.144Z,67.63
2018-11-27T08:23:39.318Z,75.20
2018-11-27T08:24:39.481Z,64.21
2018-11-27T08:25:39.654Z,72.27
2018-11-27T08:26:39.828Z,66.65
2018-11-27T08:27:39.994Z,66.16
2018-11-27T08:28:40.163Z,64.21
2018-11-27T08:29:40.344Z,65.92
2018-11-27T08:30:40.532Z,73.49
2018-11-27T08:31:40.677Z,68.36
2018-11-27T08:32:40.878Z,65.19
2018-11-27T08:33:41.023Z,71.29
2018-11-27T08:34:41.187Z,71.29
2018-11-27T08:35:41.357Z,66.16
2018-11-27T08:36:41.538Z,67.87
2018-11-27T08:37:41.703Z,63.72
2018-11-27T08:38:41.873Z,65.43
2018-11-27T08:39:42.042Z,69.58
2018-11-27T08:40:42.218Z,62.50
2018-11-27T08:41:42.388Z,62.50
2018-11-27T08:42:42.571Z,67.63
2018-11-27T08:43:42.728Z,80.08
2018-11-27T08:44:42.903Z,66.89
2018-11-27T08:45:43.069Z,71.29
2018-11-27T08:46:43.239Z,64.45
2018-11-27T08:47:43.411Z,70.80
2018-11-27T08:48:43.584Z,73.97
2018-11-27T08:49:43.756Z,68.60
2018-11-27T08:50:43.935Z,76.90
2018-11-27T08:51:44.096Z,71.53
2018-11-27T08:52:46.650Z,74.22
2018-11-27T08:53:44.435Z,62.50
2018-11-27T08:54:44.605Z,76.90
2018-11-27T08:55:44.784Z,64.70
2018-11-27T08:56:44.945Z,66.89
2018-11-27T08:57:45.122Z,66.65
2018-11-27T08:58:45.297Z,77.39
2018-11-27T08:59:45.460Z,77.88
2018-11-27T09:00:45.624Z,83.74
2018-11-27T09:01:45.803Z,74.22
2018-11-27T09:02:45.966Z,66.41
2018-11-27T09:03:46.532Z,73.73
2018-11-27T09:04:46.303Z,88.13
2018-11-27T09:05:46.493Z,77.88
2018-11-27T09:06:46.687Z,70.80
2018-11-27T09:07:46.806Z,67.63
2018-11-27T09:08:46.978Z,69.34
2018-11-27T09:09:47.154Z,69.09
2018-11-27T09:10:47.331Z,73.24
2018-11-27T09:11:47.487Z,74.46
2018-11-27T09:12:47.675Z,73.24
2018-11-27T09:13:47.841Z,67.38
2018-11-27T09:14:48.015Z,63.23
2018-11-27T09:15:48.188Z,71.53
2018-11-27T09:16:48.361Z,66.16
2018-11-27T09:17:48.528Z,70.56
2018-11-27T09:18:48.702Z,62.26
2018-11-27T09:19:48.877Z,73.24
2018-11-27T09:20:49.048Z,66.65
2018-11-27T09:21:49.214Z,63.48
2018-11-27T09:22:49.388Z,76.42
2018-11-27T09:23:49.556Z,68.85
2018-11-27T09:24:49.739Z,64.45
2018-11-27T09:25:49.898Z,73.49
2018-11-27T09:26:50.072Z,75.93
2018-11-27T09:27:50.249Z,73.73
2018-11-27T09:28:50.418Z,70.80
2018-11-27T09:29:50.590Z,65.92
2018-11-27T09:30:50.758Z,77.39
2018-11-27T09:31:50.933Z,77.15
2018-11-27T09:32:51.133Z,73.49
2018-11-27T09:33:51.293Z,72.27
2018-11-27T09:34:51.494Z,68.12
2018-11-27T09:35:51.657Z,73.24
2018-11-27T09:36:51.832Z,71.29
2018-11-27T09:37:52.015Z,73.24
2018-11-27T09:38:52.179Z,75.20
2018-11-27T09:39:52.355Z,70.31
2018-11-27T09:40:52.528Z,68.12
2018-11-27T09:41:52.693Z,69.34
2018-11-27T09:42:52.912Z,73.97
2018-11-27T09:43:53.078Z,93.02
2018-11-27T09:44:53.246Z,64.21
2018-11-27T09:45:53.426Z,71.78
2018-11-27T09:46:53.594Z,67.63
2018-11-27T09:47:53.766Z,71.29
2018-11-27T09:48:53.935Z,66.65
2018-11-27T09:49:54.111Z,74.46
2018-11-27T09:50:54.275Z,80.81
2018-11-27T09:51:54.452Z,63.72
2018-11-27T09:52:54.608Z,67.87
2018-11-27T09:53:54.780Z,70.56
2018-11-27T09:54:54.962Z,70.56
2018-11-27T09:55:55.123Z,65.19
2018-11-27T09:56:55.280Z,70.80
2018-11-27T09:57:59.186Z,71.53
2018-11-27T09:58:55.624Z,73.97
2018-11-27T09:59:55.798Z,71.53
2018-11-27T10:00:55.959Z,69.58
2018-11-27T10:01:56.135Z,73.97
2018-11-27T10:02:56.294Z,71.78
2018-11-27T10:03:56.467Z,72.27
2018-11-27T10:04:56.635Z,73.97
2018-11-27T10:05:56.799Z,70.56
2018-11-27T10:06:56.960Z,66.89
2018-11-27T10:07:57.142Z,66.16
2018-11-27T10:08:57.312Z,67.63
2018-11-27T10:09:57.485Z,69.58
2018-11-27T10:10:58.532Z,65.43
2018-11-27T10:11:57.813Z,68.60
2018-11-27T10:12:57.980Z,65.19
2018-11-27T10:13:58.166Z,71.29
2018-11-27T10:14:58.314Z,69.34
2018-11-27T10:15:58.490Z,68.12
2018-11-27T10:16:58.677Z,67.63
2018-11-27T10:17:58.828Z,66.41
2018-11-27T10:18:58.996Z,66.89
2018-11-27T10:19:59.175Z,78.37
2018-11-27T10:20:59.336Z,88.38
2018-11-27T10:21:59.511Z,69.58
2018-11-27T10:22:59.683Z,76.90
2018-11-27T10:23:59.907Z,78.37
2018-11-27T10:25:00.184Z,70.56
2018-11-27T10:26:00.257Z,74.46
2018-11-27T10:27:00.434Z,74.71
2018-11-27T10:28:00.599Z,66.65
2018-11-27T10:29:00.773Z,65.67
2018-11-27T10:30:00.959Z,69.58
2018-11-27T10:31:01.110Z,71.04
2018-11-27T10:32:01.281Z,70.31
2018-11-27T10:33:01.454Z,64.70
2018-11-27T10:34:01.625Z,69.82
2018-11-27T10:35:01.794Z,68.36
2018-11-27T10:36:01.966Z,85.21
2018-11-27T10:37:02.141Z,80.08
2018-11-27T10:38:02.309Z,72.75
2018-11-27T10:39:02.483Z,88.87
2018-11-27T10:40:02.655Z,78.61
2018-11-27T10:41:02.825Z,69.34
2018-11-27T10:42:03.171Z,72.02
2018-11-27T10:43:03.253Z,74.22
2018-11-27T10:44:03.406Z,89.11
2018-11-27T10:45:03.583Z,80.32
2018-11-27T10:46:03.756Z,78.37
2018-11-27T10:47:03.921Z,79.59
2018-11-27T10:48:04.100Z,66.89
2018-11-27T10:49:04.267Z,73.24
2018-11-27T10:50:04.442Z,76.66
2018-11-27T10:51:04.615Z,82.76
2018-11-27T10:52:04.784Z,70.80
2018-11-27T10:53:04.959Z,76.66
2018-11-27T10:54:05.125Z,76.42
2018-11-27T10:55:05.297Z,73.00
2018-11-27T10:56:05.474Z,71.78
2018-11-27T10:57:05.650Z,65.19
2018-11-27T10:58:05.807Z,67.38
2018-11-27T10:59:05.993Z,69.34
2018-11-27T11:00:06.154Z,77.88
2018-11-27T11:01:06.318Z,83.25
2018-11-27T11:02:06.483Z,85.21
2018-11-27T11:03:06.665Z,86.67
2018-11-27T11:04:06.829Z,84.72
2018-11-27T11:05:07.003Z,85.94
2018-11-27T11:06:07.183Z,84.96
2018-11-27T11:07:07.353Z,71.78
2018-11-27T11:08:07.529Z,73.24
2018-11-27T11:09:07.702Z,77.88
2018-11-27T11:10:07.873Z,79.35
2018-11-27T11:11:08.049Z,76.90
2018-11-27T11:12:08.218Z,67.87
2018-11-27T11:13:08.372Z,77.39
2018-11-27T11:14:08.549Z,76.42
2018-11-27T11:15:08.705Z,70.31
2018-11-27T11:16:09.325Z,79.35
2018-11-27T11:17:09.013Z,79.35
2018-11-27T11:18:09.223Z,76.42
2018-11-27T11:19:09.354Z,74.95
2018-11-27T11:20:09.543Z,67.63
2018-11-27T11:21:09.704Z,84.23
2018-11-27T11:22:09.869Z,64.94
2018-11-27T11:23:10.242Z,76.66
2018-11-27T11:24:10.289Z,74.95
2018-11-27T11:25:10.457Z,70.56
2018-11-27T11:26:10.638Z,73.73
2018-11-27T11:27:10.803Z,69.09
2018-11-27T11:28:10.998Z,69.58
2018-11-27T11:29:11.146Z,72.51
2018-11-27T11:30:11.317Z,75.20
2018-11-27T11:31:11.497Z,80.57
2018-11-27T11:32:11.662Z,74.71
2018-11-27T11:33:11.843Z,77.64
2018-11-27T11:34:12.011Z,78.13
2018-11-27T11:35:12.171Z,80.57
2018-11-27T11:36:12.345Z,75.93
2018-11-27T11:37:12.516Z,74.46
2018-11-27T11:38:12.687Z,68.85
2018-11-27T11:39:12.857Z,69.58
2018-11-27T11:40:13.030Z,71.04
2018-11-27T11:41:13.196Z,79.59
2018-11-27T11:42:13.366Z,72.27
2018-11-27T11:43:13.534Z,69.58
2018-11-27T11:44:13.706Z,64.45
2018-11-27T11:45:13.890Z,71.78
2018-11-27T11:46:14.057Z,74.22
2018-11-27T11:47:14.223Z,73.97
2018-11-27T11:48:14.391Z,64.45
2018-11-27T11:49:14.563Z,64.45
2018-11-27T11:50:14.712Z,73.97
2018-11-27T11:51:14.899Z,72.51
2018-11-27T11:52:15.073Z,80.08
2018-11-27T11:53:15.238Z,69.82
2018-11-27T11:54:15.403Z,69.82
2018-11-27T11:55:15.578Z,79.10
2018-11-27T11:56:15.873Z,79.59
2018-11-27T11:57:16.012Z,77.88
2018-11-27T11:58:17.339Z,75.20
2018-11-27T11:59:16.223Z,70.31
2018-11-27T12:00:16.398Z,67.63
2018-11-27T12:01:16.567Z,79.83
2018-11-27T12:02:16.745Z,69.34
2018-11-27T12:03:16.921Z,65.43
2018-11-27T12:04:17.077Z,82.76
2018-11-27T12:05:17.252Z,71.04
2018-11-27T12:06:17.425Z,66.16
2018-11-27T12:07:17.602Z,69.82
2018-11-27T12:08:17.777Z,77.64
2018-11-27T12:09:17.955Z,68.12
2018-11-27T12:10:18.121Z,68.12
2018-11-27T12:11:18.298Z,75.93
2018-11-27T12:12:18.469Z,72.02
2018-11-27T12:13:18.646Z,73.97
2018-11-27T12:14:18.811Z,70.31
2018-11-27T12:15:18.985Z,71.04
2018-11-27T12:16:19.154Z,83.74
2018-11-27T12:17:19.337Z,72.75
2018-11-27T12:18:19.498Z,69.58
2018-11-27T12:19:19.675Z,80.32
2018-11-27T12:20:19.844Z,75.68
2018-11-27T12:21:20.023Z,77.39
2018-11-27T12:22:20.181Z,76.42
2018-11-27T12:23:20.365Z,76.66
2018-11-27T12:24:20.524Z,72.51
2018-11-27T12:25:24.167Z,77.15
2018-11-27T12:26:20.866Z,71.53
2018-11-27T12:27:21.039Z,78.61
2018-11-27T12:28:21.217Z,80.81
2018-11-27T12:29:21.393Z,77.88
2018-11-27T12:30:21.557Z,75.44
2018-11-27T12:31:21.721Z,71.53
2018-11-27T12:32:21.894Z,67.87
2018-11-27T12:33:22.069Z,70.80
2018-11-27T12:34:22.233Z,66.89
2018-11-27T12:35:22.408Z,71.29
2018-11-27T12:36:22.575Z,82.28
2018-11-27T12:37:22.757Z,78.86
2018-11-27T12:38:22.925Z,77.88
2018-11-27T12:39:23.097Z,81.79
2018-11-27T12:40:23.267Z,86.43
2018-11-27T12:41:23.442Z,83.74
2018-11-27T12:42:23.628Z,83.50
2018-11-27T12:43:23.785Z,85.21
2018-11-27T12:44:23.965Z,76.17
2018-11-27T12:45:24.122Z,73.24
2018-11-27T12:46:24.297Z,70.07
2018-11-27T12:47:24.479Z,85.69
2018-11-27T12:48:24.647Z,85.45
2018-11-27T12:49:24.821Z,82.76
2018-11-27T12:50:24.990Z,81.30
2018-11-27T12:51:25.169Z,74.95
2018-11-27T12:52:25.346Z,77.39
2018-11-27T12:53:25.514Z,82.52
2018-11-27T12:54:25.687Z,76.17
2018-11-27T12:55:25.867Z,75.93
2018-11-27T12:56:26.066Z,86.67
2018-11-27T12:57:26.234Z,78.13
2018-11-27T12:58:26.410Z,80.08